sensor_id;sensor_type;location;lat;lon;timestamp;P1;durP1;ratioP1;P2;durP2;ratioP2
48534;SDS011;34323;52.022;5.686;2023-03-03T00:00:26;28.38;;;14.30;;
48534;SDS011;34323;52.022;5.686;2023-03-03T00:02:52;29.58;;;14.45;;
48534;SDS011;34323;52.022;5.686;2023-03-03T00:05:17;32.10;;;14.50;;
48534;SDS011;34323;52.022;5.686;2023-03-03T00:07:43;29.75;;;14.30;;
48534;SDS011;34323;52.022;5.686;2023-03-03T00:10:09;28.70;;;14.40;;
48534;SDS011;34323;52.022;5.686;2023-03-03T00:12:37;29.42;;;14.10;;
48534;SDS011;34323;52.022;5.686;2023-03-03T00:15:15;28.92;;;14.80;;
48534;SDS011;34323;52.022;5.686;2023-03-03T00:17:42;30.20;;;14.75;;
48534;SDS011;34323;52.022;5.686;2023-03-03T00:25:51;25.90;;;13.75;;
48534;SDS011;34323;52.022;5.686;2023-03-03T00:30:52;29.58;;;14.27;;
48534;SDS011;34323;52.022;5.686;2023-03-03T00:33:30;30.10;;;15.25;;
48534;SDS011;34323;52.022;5.686;2023-03-03T00:38:47;25.85;;;13.02;;
48534;SDS011;34323;52.022;5.686;2023-03-03T00:41:22;28.30;;;13.77;;
48534;SDS011;34323;52.022;5.686;2023-03-03T00:43:49;25.10;;;12.43;;
48534;SDS011;34323;52.022;5.686;2023-03-03T00:46:19;22.83;;;12.48;;
48534;SDS011;34323;52.022;5.686;2023-03-03T00:48:47;26.92;;;13.30;;
48534;SDS011;34323;52.022;5.686;2023-03-03T00:51:27;24.83;;;13.15;;
48534;SDS011;34323;52.022;5.686;2023-03-03T00:53:55;27.88;;;13.35;;
48534;SDS011;34323;52.022;5.686;2023-03-03T00:56:21;25.85;;;12.52;;
48534;SDS011;34323;52.022;5.686;2023-03-03T00:58:47;25.63;;;12.63;;
48534;SDS011;34323;52.022;5.686;2023-03-03T01:01:14;28.50;;;13.43;;
48534;SDS011;34323;52.022;5.686;2023-03-03T01:03:40;28.27;;;13.20;;
48534;SDS011;34323;52.022;5.686;2023-03-03T01:06:06;29.52;;;13.25;;
48534;SDS011;34323;52.022;5.686;2023-03-03T01:08:32;35.95;;;14.30;;
48534;SDS011;34323;52.022;5.686;2023-03-03T01:10:59;26.58;;;12.80;;
48534;SDS011;34323;52.022;5.686;2023-03-03T01:13:30;32.73;;;15.03;;
48534;SDS011;34323;52.022;5.686;2023-03-03T01:15:58;27.75;;;13.23;;
48534;SDS011;34323;52.022;5.686;2023-03-03T01:18:25;26.52;;;13.25;;
48534;SDS011;34323;52.022;5.686;2023-03-03T01:20:51;22.40;;;12.30;;
48534;SDS011;34323;52.022;5.686;2023-03-03T01:23:17;28.42;;;12.60;;
48534;SDS011;34323;52.022;5.686;2023-03-03T01:25:42;26.10;;;12.10;;
48534;SDS011;34323;52.022;5.686;2023-03-03T01:28:08;27.15;;;13.02;;
48534;SDS011;34323;52.022;5.686;2023-03-03T01:30:34;27.30;;;13.38;;
48534;SDS011;34323;52.022;5.686;2023-03-03T01:33:00;28.90;;;14.23;;
48534;SDS011;34323;52.022;5.686;2023-03-03T01:35:25;30.23;;;12.98;;
48534;SDS011;34323;52.022;5.686;2023-03-03T01:37:51;30.13;;;13.52;;
48534;SDS011;34323;52.022;5.686;2023-03-03T01:40:18;32.47;;;12.93;;
48534;SDS011;34323;52.022;5.686;2023-03-03T01:42:47;24.98;;;13.48;;
48534;SDS011;34323;52.022;5.686;2023-03-03T01:45:14;33.88;;;14.48;;
48534;SDS011;34323;52.022;5.686;2023-03-03T01:47:50;29.13;;;13.90;;
48534;SDS011;34323;52.022;5.686;2023-03-03T01:50:25;25.70;;;12.55;;
48534;SDS011;34323;52.022;5.686;2023-03-03T01:53:05;32.17;;;13.75;;
48534;SDS011;34323;52.022;5.686;2023-03-03T01:55:38;29.75;;;14.45;;
48534;SDS011;34323;52.022;5.686;2023-03-03T02:00:55;27.52;;;13.98;;
48534;SDS011;34323;52.022;5.686;2023-03-03T02:03:25;31.17;;;14.48;;
48534;SDS011;34323;52.022;5.686;2023-03-03T02:05:52;33.67;;;14.95;;
48534;SDS011;34323;52.022;5.686;2023-03-03T02:08:24;32.63;;;14.43;;
48534;SDS011;34323;52.022;5.686;2023-03-03T02:10:58;33.85;;;14.70;;
48534;SDS011;34323;52.022;5.686;2023-03-03T02:13:25;33.45;;;14.65;;
48534;SDS011;34323;52.022;5.686;2023-03-03T02:15:50;30.15;;;13.93;;
48534;SDS011;34323;52.022;5.686;2023-03-03T02:18:16;34.13;;;14.85;;
48534;SDS011;34323;52.022;5.686;2023-03-03T02:20:45;30.98;;;13.82;;
48534;SDS011;34323;52.022;5.686;2023-03-03T02:28:49;31.13;;;14.52;;
48534;SDS011;34323;52.022;5.686;2023-03-03T02:31:17;28.63;;;14.07;;
48534;SDS011;34323;52.022;5.686;2023-03-03T02:33:48;36.97;;;14.32;;
48534;SDS011;34323;52.022;5.686;2023-03-03T02:36:16;32.60;;;14.82;;
48534;SDS011;34323;52.022;5.686;2023-03-03T02:41:53;33.17;;;14.93;;
48534;SDS011;34323;52.022;5.686;2023-03-03T02:44:30;31.88;;;14.25;;
48534;SDS011;34323;52.022;5.686;2023-03-03T02:46:57;34.95;;;15.60;;
48534;SDS011;34323;52.022;5.686;2023-03-03T02:49:24;30.70;;;13.60;;
48534;SDS011;34323;52.022;5.686;2023-03-03T02:51:52;30.20;;;13.18;;
48534;SDS011;34323;52.022;5.686;2023-03-03T02:54:18;31.42;;;14.23;;
48534;SDS011;34323;52.022;5.686;2023-03-03T02:56:45;33.42;;;13.85;;
48534;SDS011;34323;52.022;5.686;2023-03-03T02:59:12;31.92;;;12.73;;
48534;SDS011;34323;52.022;5.686;2023-03-03T03:01:38;30.13;;;13.98;;
48534;SDS011;34323;52.022;5.686;2023-03-03T03:04:14;28.33;;;13.63;;
48534;SDS011;34323;52.022;5.686;2023-03-03T03:06:42;28.90;;;13.57;;
48534;SDS011;34323;52.022;5.686;2023-03-03T03:09:08;31.08;;;14.68;;
48534;SDS011;34323;52.022;5.686;2023-03-03T03:11:35;35.13;;;14.30;;
48534;SDS011;34323;52.022;5.686;2023-03-03T03:14:04;31.15;;;13.30;;
48534;SDS011;34323;52.022;5.686;2023-03-03T03:16:31;31.80;;;13.05;;
48534;SDS011;34323;52.022;5.686;2023-03-03T03:18:58;30.50;;;14.65;;
48534;SDS011;34323;52.022;5.686;2023-03-03T03:21:25;27.95;;;13.95;;
48534;SDS011;34323;52.022;5.686;2023-03-03T03:23:50;28.48;;;12.18;;
48534;SDS011;34323;52.022;5.686;2023-03-03T03:26:16;29.52;;;14.52;;
48534;SDS011;34323;52.022;5.686;2023-03-03T03:28:42;28.45;;;13.45;;
48534;SDS011;34323;52.022;5.686;2023-03-03T03:31:08;27.95;;;13.88;;
48534;SDS011;34323;52.022;5.686;2023-03-03T03:33:34;32.00;;;13.63;;
48534;SDS011;34323;52.022;5.686;2023-03-03T03:36:00;26.98;;;13.75;;
48534;SDS011;34323;52.022;5.686;2023-03-03T03:38:27;31.40;;;13.32;;
48534;SDS011;34323;52.022;5.686;2023-03-03T03:40:54;35.35;;;14.45;;
48534;SDS011;34323;52.022;5.686;2023-03-03T03:43:19;26.80;;;12.52;;
48534;SDS011;34323;52.022;5.686;2023-03-03T03:45:45;32.22;;;14.32;;
48534;SDS011;34323;52.022;5.686;2023-03-03T03:48:11;24.73;;;12.52;;
48534;SDS011;34323;52.022;5.686;2023-03-03T03:50:37;31.85;;;13.82;;
48534;SDS011;34323;52.022;5.686;2023-03-03T03:53:03;29.20;;;14.23;;
48534;SDS011;34323;52.022;5.686;2023-03-03T03:55:30;27.83;;;12.90;;
48534;SDS011;34323;52.022;5.686;2023-03-03T03:57:56;30.40;;;12.73;;
48534;SDS011;34323;52.022;5.686;2023-03-03T04:00:22;31.10;;;12.52;;
48534;SDS011;34323;52.022;5.686;2023-03-03T04:02:48;26.67;;;13.85;;
48534;SDS011;34323;52.022;5.686;2023-03-03T04:05:14;28.20;;;11.93;;
48534;SDS011;34323;52.022;5.686;2023-03-03T04:07:40;32.53;;;14.40;;
48534;SDS011;34323;52.022;5.686;2023-03-03T04:10:06;27.70;;;14.07;;
48534;SDS011;34323;52.022;5.686;2023-03-03T04:12:32;27.05;;;12.05;;
48534;SDS011;34323;52.022;5.686;2023-03-03T04:15:07;27.52;;;13.07;;
48534;SDS011;34323;52.022;5.686;2023-03-03T04:17:34;31.70;;;12.43;;
48534;SDS011;34323;52.022;5.686;2023-03-03T04:20:00;29.17;;;12.85;;
48534;SDS011;34323;52.022;5.686;2023-03-03T04:22:27;31.75;;;14.05;;
48534;SDS011;34323;52.022;5.686;2023-03-03T04:24:54;29.52;;;13.43;;
48534;SDS011;34323;52.022;5.686;2023-03-03T04:27:19;37.40;;;12.63;;
48534;SDS011;34323;52.022;5.686;2023-03-03T04:29:45;33.22;;;13.80;;
48534;SDS011;34323;52.022;5.686;2023-03-03T04:32:11;25.52;;;11.95;;
48534;SDS011;34323;52.022;5.686;2023-03-03T04:34:36;33.00;;;13.18;;
48534;SDS011;34323;52.022;5.686;2023-03-03T04:37:02;33.05;;;12.70;;
48534;SDS011;34323;52.022;5.686;2023-03-03T04:39:28;32.72;;;13.65;;
48534;SDS011;34323;52.022;5.686;2023-03-03T04:41:53;31.23;;;11.98;;
48534;SDS011;34323;52.022;5.686;2023-03-03T04:44:19;32.03;;;12.57;;
48534;SDS011;34323;52.022;5.686;2023-03-03T04:46:45;23.52;;;10.88;;
48534;SDS011;34323;52.022;5.686;2023-03-03T04:49:10;27.83;;;11.52;;
48534;SDS011;34323;52.022;5.686;2023-03-03T04:51:36;23.98;;;10.63;;
48534;SDS011;34323;52.022;5.686;2023-03-03T04:54:01;27.58;;;11.43;;
48534;SDS011;34323;52.022;5.686;2023-03-03T04:56:28;26.65;;;11.38;;
48534;SDS011;34323;52.022;5.686;2023-03-03T04:58:55;24.38;;;10.77;;
48534;SDS011;34323;52.022;5.686;2023-03-03T05:01:21;22.15;;;10.55;;
48534;SDS011;34323;52.022;5.686;2023-03-03T05:03:47;30.40;;;12.77;;
48534;SDS011;34323;52.022;5.686;2023-03-03T05:06:12;30.67;;;13.82;;
48534;SDS011;34323;52.022;5.686;2023-03-03T05:08:38;27.10;;;11.90;;
48534;SDS011;34323;52.022;5.686;2023-03-03T05:11:03;36.70;;;12.85;;
48534;SDS011;34323;52.022;5.686;2023-03-03T05:13:29;28.38;;;12.38;;
48534;SDS011;34323;52.022;5.686;2023-03-03T05:15:55;28.75;;;12.23;;
48534;SDS011;34323;52.022;5.686;2023-03-03T05:18:21;40.92;;;13.25;;
48534;SDS011;34323;52.022;5.686;2023-03-03T05:20:48;28.27;;;13.93;;
48534;SDS011;34323;52.022;5.686;2023-03-03T05:23:15;27.52;;;13.80;;
48534;SDS011;34323;52.022;5.686;2023-03-03T05:25:40;32.88;;;13.75;;
48534;SDS011;34323;52.022;5.686;2023-03-03T05:28:06;33.67;;;12.88;;
48534;SDS011;34323;52.022;5.686;2023-03-03T05:30:32;27.17;;;12.15;;
48534;SDS011;34323;52.022;5.686;2023-03-03T05:32:58;25.20;;;11.93;;
48534;SDS011;34323;52.022;5.686;2023-03-03T05:35:24;27.60;;;11.85;;
48534;SDS011;34323;52.022;5.686;2023-03-03T05:37:50;26.80;;;12.30;;
48534;SDS011;34323;52.022;5.686;2023-03-03T05:40:17;24.65;;;12.02;;
48534;SDS011;34323;52.022;5.686;2023-03-03T05:42:43;28.25;;;10.57;;
48534;SDS011;34323;52.022;5.686;2023-03-03T05:45:09;28.13;;;12.38;;
48534;SDS011;34323;52.022;5.686;2023-03-03T05:47:36;23.63;;;10.95;;
48534;SDS011;34323;52.022;5.686;2023-03-03T05:50:01;22.67;;;10.80;;
48534;SDS011;34323;52.022;5.686;2023-03-03T05:52:27;20.70;;;10.68;;
48534;SDS011;34323;52.022;5.686;2023-03-03T05:54:53;23.35;;;11.40;;
48534;SDS011;34323;52.022;5.686;2023-03-03T05:57:19;26.92;;;10.60;;
48534;SDS011;34323;52.022;5.686;2023-03-03T05:59:44;20.63;;;9.85;;
48534;SDS011;34323;52.022;5.686;2023-03-03T06:02:10;25.52;;;12.30;;
48534;SDS011;34323;52.022;5.686;2023-03-03T06:04:35;33.83;;;11.77;;
48534;SDS011;34323;52.022;5.686;2023-03-03T06:07:01;24.80;;;11.88;;
48534;SDS011;34323;52.022;5.686;2023-03-03T06:09:27;25.65;;;10.18;;
48534;SDS011;34323;52.022;5.686;2023-03-03T06:11:53;22.83;;;10.10;;
48534;SDS011;34323;52.022;5.686;2023-03-03T06:14:19;26.10;;;10.98;;
48534;SDS011;34323;52.022;5.686;2023-03-03T06:16:45;20.95;;;9.63;;
48534;SDS011;34323;52.022;5.686;2023-03-03T06:19:12;30.90;;;11.70;;
48534;SDS011;34323;52.022;5.686;2023-03-03T06:21:38;25.40;;;10.50;;
48534;SDS011;34323;52.022;5.686;2023-03-03T06:24:04;25.85;;;11.10;;
48534;SDS011;34323;52.022;5.686;2023-03-03T06:26:30;20.15;;;10.38;;
48534;SDS011;34323;52.022;5.686;2023-03-03T06:28:56;26.25;;;10.68;;
48534;SDS011;34323;52.022;5.686;2023-03-03T06:31:22;22.38;;;9.93;;
48534;SDS011;34323;52.022;5.686;2023-03-03T06:33:48;22.95;;;9.57;;
48534;SDS011;34323;52.022;5.686;2023-03-03T06:36:13;25.23;;;10.75;;
48534;SDS011;34323;52.022;5.686;2023-03-03T06:38:39;20.35;;;9.15;;
48534;SDS011;34323;52.022;5.686;2023-03-03T06:41:05;18.05;;;8.57;;
48534;SDS011;34323;52.022;5.686;2023-03-03T06:43:32;27.95;;;9.45;;
48534;SDS011;34323;52.022;5.686;2023-03-03T06:45:59;21.63;;;8.38;;
48534;SDS011;34323;52.022;5.686;2023-03-03T06:48:24;24.67;;;8.82;;
48534;SDS011;34323;52.022;5.686;2023-03-03T06:50:50;20.05;;;8.38;;
48534;SDS011;34323;52.022;5.686;2023-03-03T06:53:16;16.75;;;7.78;;
48534;SDS011;34323;52.022;5.686;2023-03-03T06:55:43;20.17;;;7.13;;
48534;SDS011;34323;52.022;5.686;2023-03-03T06:58:11;21.33;;;7.82;;
48534;SDS011;34323;52.022;5.686;2023-03-03T07:00:39;20.27;;;7.50;;
48534;SDS011;34323;52.022;5.686;2023-03-03T07:05:42;17.92;;;7.50;;
48534;SDS011;34323;52.022;5.686;2023-03-03T07:08:15;12.02;;;6.05;;
48534;SDS011;34323;52.022;5.686;2023-03-03T07:10:43;13.90;;;6.03;;
48534;SDS011;34323;52.022;5.686;2023-03-03T07:13:15;14.52;;;6.63;;
48534;SDS011;34323;52.022;5.686;2023-03-03T07:15:49;16.83;;;6.35;;
48534;SDS011;34323;52.022;5.686;2023-03-03T07:20:49;10.98;;;5.78;;
48534;SDS011;34323;52.022;5.686;2023-03-03T07:23:25;13.20;;;5.45;;
48534;SDS011;34323;52.022;5.686;2023-03-03T07:25:52;8.57;;;4.53;;
48534;SDS011;34323;52.022;5.686;2023-03-03T07:28:23;10.85;;;5.20;;
48534;SDS011;34323;52.022;5.686;2023-03-03T07:30:49;11.38;;;5.40;;
48534;SDS011;34323;52.022;5.686;2023-03-03T07:33:22;13.07;;;5.97;;
48534;SDS011;34323;52.022;5.686;2023-03-03T07:35:50;16.35;;;5.68;;
48534;SDS011;34323;52.022;5.686;2023-03-03T07:41:10;16.13;;;6.38;;
48534;SDS011;34323;52.022;5.686;2023-03-03T07:43:53;12.80;;;6.47;;
48534;SDS011;34323;52.022;5.686;2023-03-03T07:46:41;15.63;;;5.65;;
48534;SDS011;34323;52.022;5.686;2023-03-03T07:49:20;11.52;;;6.00;;
48534;SDS011;34323;52.022;5.686;2023-03-03T07:51:47;12.68;;;5.75;;
48534;SDS011;34323;52.022;5.686;2023-03-03T07:57:10;16.02;;;6.25;;
48534;SDS011;34323;52.022;5.686;2023-03-03T07:59:37;15.57;;;6.70;;
48534;SDS011;34323;52.022;5.686;2023-03-03T08:02:33;12.20;;;5.65;;
48534;SDS011;34323;52.022;5.686;2023-03-03T08:05:26;17.38;;;7.25;;
48534;SDS011;34323;52.022;5.686;2023-03-03T08:08:38;15.75;;;6.53;;
48534;SDS011;34323;52.022;5.686;2023-03-03T08:10:58;19.40;;;7.15;;
48534;SDS011;34323;52.022;5.686;2023-03-03T08:16:01;16.25;;;6.50;;
48534;SDS011;34323;52.022;5.686;2023-03-03T08:18:46;15.38;;;6.10;;
48534;SDS011;34323;52.022;5.686;2023-03-03T08:21:18;10.85;;;5.45;;
48534;SDS011;34323;52.022;5.686;2023-03-03T08:23:48;12.10;;;5.30;;
48534;SDS011;34323;52.022;5.686;2023-03-03T08:26:15;11.32;;;5.18;;
48534;SDS011;34323;52.022;5.686;2023-03-03T08:28:43;15.25;;;5.40;;
48534;SDS011;34323;52.022;5.686;2023-03-03T08:31:09;11.43;;;5.22;;
48534;SDS011;34323;52.022;5.686;2023-03-03T08:33:34;10.35;;;4.65;;
48534;SDS011;34323;52.022;5.686;2023-03-03T08:36:00;13.48;;;5.50;;
48534;SDS011;34323;52.022;5.686;2023-03-03T08:38:26;10.13;;;5.05;;
48534;SDS011;34323;52.022;5.686;2023-03-03T08:40:52;11.15;;;5.13;;
48534;SDS011;34323;52.022;5.686;2023-03-03T08:43:17;15.52;;;6.00;;
48534;SDS011;34323;52.022;5.686;2023-03-03T08:45:46;14.90;;;5.47;;
48534;SDS011;34323;52.022;5.686;2023-03-03T08:48:13;11.45;;;5.38;;
48534;SDS011;34323;52.022;5.686;2023-03-03T08:50:39;9.27;;;4.45;;
48534;SDS011;34323;52.022;5.686;2023-03-03T08:53:05;11.00;;;5.00;;
48534;SDS011;34323;52.022;5.686;2023-03-03T08:55:32;11.45;;;4.60;;
48534;SDS011;34323;52.022;5.686;2023-03-03T08:57:58;11.77;;;5.57;;
48534;SDS011;34323;52.022;5.686;2023-03-03T09:00:24;10.93;;;5.10;;
48534;SDS011;34323;52.022;5.686;2023-03-03T09:02:50;11.00;;;5.45;;
48534;SDS011;34323;52.022;5.686;2023-03-03T09:05:17;10.80;;;5.55;;
48534;SDS011;34323;52.022;5.686;2023-03-03T09:07:43;13.10;;;5.30;;
48534;SDS011;34323;52.022;5.686;2023-03-03T09:10:10;10.73;;;5.13;;
48534;SDS011;34323;52.022;5.686;2023-03-03T09:12:42;16.83;;;5.50;;
48534;SDS011;34323;52.022;5.686;2023-03-03T09:17:41;14.23;;;5.13;;
48534;SDS011;34323;52.022;5.686;2023-03-03T09:22:57;8.80;;;4.65;;
48534;SDS011;34323;52.022;5.686;2023-03-03T09:28:00;8.23;;;4.20;;
48534;SDS011;34323;52.022;5.686;2023-03-03T09:33:18;10.40;;;4.85;;
48534;SDS011;34323;52.022;5.686;2023-03-03T09:35:45;7.90;;;3.85;;
48534;SDS011;34323;52.022;5.686;2023-03-03T09:38:30;8.57;;;3.67;;
48534;SDS011;34323;52.022;5.686;2023-03-03T09:43:54;11.90;;;4.55;;
48534;SDS011;34323;52.022;5.686;2023-03-03T09:46:36;6.60;;;3.72;;
48534;SDS011;34323;52.022;5.686;2023-03-03T09:49:22;7.60;;;3.90;;
48534;SDS011;34323;52.022;5.686;2023-03-03T10:05:50;9.10;;;3.03;;
48534;SDS011;34323;52.022;5.686;2023-03-03T10:08:36;7.22;;;3.25;;
48534;SDS011;34323;52.022;5.686;2023-03-03T10:16:42;5.43;;;2.90;;
48534;SDS011;34323;52.022;5.686;2023-03-03T10:22:15;6.43;;;2.80;;
48534;SDS011;34323;52.022;5.686;2023-03-03T10:33:00;6.03;;;3.70;;
48534;SDS011;34323;52.022;5.686;2023-03-03T10:36:15;7.93;;;4.85;;
48534;SDS011;34323;52.022;5.686;2023-03-03T10:38:44;7.53;;;4.53;;
48534;SDS011;34323;52.022;5.686;2023-03-03T11:01:17;8.40;;;3.75;;
48534;SDS011;34323;52.022;5.686;2023-03-03T11:03:57;7.45;;;3.88;;
48534;SDS011;34323;52.022;5.686;2023-03-03T11:09:30;8.32;;;4.70;;
48534;SDS011;34323;52.022;5.686;2023-03-03T11:14:46;4.57;;;2.75;;
48534;SDS011;34323;52.022;5.686;2023-03-03T11:23:10;11.35;;;7.72;;
48534;SDS011;34323;52.022;5.686;2023-03-03T11:25:47;16.25;;;8.80;;
48534;SDS011;34323;52.022;5.686;2023-03-03T11:30:54;10.88;;;6.53;;
48534;SDS011;34323;52.022;5.686;2023-03-03T11:36:15;8.55;;;3.35;;
48534;SDS011;34323;52.022;5.686;2023-03-03T11:38:53;6.20;;;3.25;;
48534;SDS011;34323;52.022;5.686;2023-03-03T11:41:34;5.65;;;2.85;;
48534;SDS011;34323;52.022;5.686;2023-03-03T11:44:23;5.80;;;3.30;;
48534;SDS011;34323;52.022;5.686;2023-03-03T11:49:49;3.78;;;2.15;;
48534;SDS011;34323;52.022;5.686;2023-03-03T11:52:30;5.85;;;2.35;;
48534;SDS011;34323;52.022;5.686;2023-03-03T11:55:26;6.07;;;2.85;;
48534;SDS011;34323;52.022;5.686;2023-03-03T12:00:56;4.25;;;2.40;;
48534;SDS011;34323;52.022;5.686;2023-03-03T12:03:41;4.47;;;1.98;;
48534;SDS011;34323;52.022;5.686;2023-03-03T12:06:16;7.57;;;3.13;;
48534;SDS011;34323;52.022;5.686;2023-03-03T12:09:08;4.32;;;2.30;;
48534;SDS011;34323;52.022;5.686;2023-03-03T12:12:39;3.65;;;1.98;;
48534;SDS011;34323;52.022;5.686;2023-03-03T12:25:08;2.92;;;1.63;;
48534;SDS011;34323;52.022;5.686;2023-03-03T12:31:38;4.00;;;2.25;;
48534;SDS011;34323;52.022;5.686;2023-03-03T12:33:43;3.75;;;1.80;;
48534;SDS011;34323;52.022;5.686;2023-03-03T12:39:49;4.55;;;1.55;;
48534;SDS011;34323;52.022;5.686;2023-03-03T12:47:45;7.43;;;1.88;;
48534;SDS011;34323;52.022;5.686;2023-03-03T12:50:34;4.70;;;1.97;;
48534;SDS011;34323;52.022;5.686;2023-03-03T13:04:22;5.78;;;2.20;;
48534;SDS011;34323;52.022;5.686;2023-03-03T13:07:40;4.70;;;1.52;;
48534;SDS011;34323;52.022;5.686;2023-03-03T13:10:02;4.00;;;1.70;;
48534;SDS011;34323;52.022;5.686;2023-03-03T13:16:19;4.93;;;1.92;;
48534;SDS011;34323;52.022;5.686;2023-03-03T13:21:34;5.28;;;1.83;;
48534;SDS011;34323;52.022;5.686;2023-03-03T13:27:06;4.85;;;1.80;;
48534;SDS011;34323;52.022;5.686;2023-03-03T13:29:36;3.38;;;1.75;;
48534;SDS011;34323;52.022;5.686;2023-03-03T13:37:38;2.90;;;1.52;;
48534;SDS011;34323;52.022;5.686;2023-03-03T13:40:24;3.80;;;1.70;;
48534;SDS011;34323;52.022;5.686;2023-03-03T13:43:21;2.33;;;1.55;;
48534;SDS011;34323;52.022;5.686;2023-03-03T13:45:58;2.95;;;1.63;;
48534;SDS011;34323;52.022;5.686;2023-03-03T13:54:43;3.47;;;1.58;;
48534;SDS011;34323;52.022;5.686;2023-03-03T13:57:33;2.30;;;0.90;;
48534;SDS011;34323;52.022;5.686;2023-03-03T14:00:26;2.90;;;1.02;;
48534;SDS011;34323;52.022;5.686;2023-03-03T14:05:49;4.22;;;1.63;;
48534;SDS011;34323;52.022;5.686;2023-03-03T14:11:14;4.85;;;1.30;;
48534;SDS011;34323;52.022;5.686;2023-03-03T14:19:16;2.50;;;1.23;;
48534;SDS011;34323;52.022;5.686;2023-03-03T14:27:37;3.55;;;1.13;;
48534;SDS011;34323;52.022;5.686;2023-03-03T14:40:33;5.10;;;1.48;;
48534;SDS011;34323;52.022;5.686;2023-03-03T14:43:04;3.85;;;1.63;;
48534;SDS011;34323;52.022;5.686;2023-03-03T14:45:44;5.13;;;1.40;;
48534;SDS011;34323;52.022;5.686;2023-03-03T14:51:14;5.88;;;1.23;;
48534;SDS011;34323;52.022;5.686;2023-03-03T14:53:47;6.70;;;1.95;;
48534;SDS011;34323;52.022;5.686;2023-03-03T14:56:22;6.95;;;1.42;;
48534;SDS011;34323;52.022;5.686;2023-03-03T15:01:44;4.53;;;1.70;;
48534;SDS011;34323;52.022;5.686;2023-03-03T15:06:42;4.03;;;1.75;;
48534;SDS011;34323;52.022;5.686;2023-03-03T15:09:19;8.75;;;2.38;;
48534;SDS011;34323;52.022;5.686;2023-03-03T15:12:36;4.05;;;1.80;;
48534;SDS011;34323;52.022;5.686;2023-03-03T15:17:33;2.67;;;1.50;;
48534;SDS011;34323;52.022;5.686;2023-03-03T15:20:19;6.90;;;1.80;;
48534;SDS011;34323;52.022;5.686;2023-03-03T15:25:44;3.17;;;1.35;;
48534;SDS011;34323;52.022;5.686;2023-03-03T15:28:17;7.43;;;1.40;;
48534;SDS011;34323;52.022;5.686;2023-03-03T15:30:54;2.88;;;1.15;;
48534;SDS011;34323;52.022;5.686;2023-03-03T15:33:46;4.43;;;1.65;;
48534;SDS011;34323;52.022;5.686;2023-03-03T15:36:43;5.75;;;1.35;;
48534;SDS011;34323;52.022;5.686;2023-03-03T15:39:19;6.05;;;1.90;;
48534;SDS011;34323;52.022;5.686;2023-03-03T15:44:46;2.72;;;1.50;;
48534;SDS011;34323;52.022;5.686;2023-03-03T15:50:09;5.82;;;1.55;;
48534;SDS011;34323;52.022;5.686;2023-03-03T15:58:35;1.60;;;1.35;;
48534;SDS011;34323;52.022;5.686;2023-03-03T16:03:59;2.67;;;1.40;;
48534;SDS011;34323;52.022;5.686;2023-03-03T16:14:46;4.68;;;1.63;;
48534;SDS011;34323;52.022;5.686;2023-03-03T16:17:37;1.35;;;1.08;;
48534;SDS011;34323;52.022;5.686;2023-03-03T16:20:28;4.40;;;1.02;;
48534;SDS011;34323;52.022;5.686;2023-03-03T16:23:15;3.45;;;1.70;;
48534;SDS011;34323;52.022;5.686;2023-03-03T16:39:54;2.97;;;1.42;;
48534;SDS011;34323;52.022;5.686;2023-03-03T16:42:28;3.67;;;1.23;;
48534;SDS011;34323;52.022;5.686;2023-03-03T16:44:59;5.35;;;0.90;;
48534;SDS011;34323;52.022;5.686;2023-03-03T16:55:27;1.15;;;0.70;;
48534;SDS011;34323;52.022;5.686;2023-03-03T16:58:19;1.83;;;0.98;;
48534;SDS011;34323;52.022;5.686;2023-03-03T17:01:10;1.98;;;0.90;;
48534;SDS011;34323;52.022;5.686;2023-03-03T17:06:34;2.15;;;0.70;;
48534;SDS011;34323;52.022;5.686;2023-03-03T17:15:07;4.68;;;1.10;;
48534;SDS011;34323;52.022;5.686;2023-03-03T17:20:47;6.30;;;2.45;;
48534;SDS011;34323;52.022;5.686;2023-03-03T17:23:41;2.92;;;1.38;;
48534;SDS011;34323;52.022;5.686;2023-03-03T17:29:11;5.07;;;1.27;;
48534;SDS011;34323;52.022;5.686;2023-03-03T17:38:09;8.60;;;2.08;;
48534;SDS011;34323;52.022;5.686;2023-03-03T17:43:24;4.03;;;1.65;;
48534;SDS011;34323;52.022;5.686;2023-03-03T17:46:19;7.20;;;2.05;;
48534;SDS011;34323;52.022;5.686;2023-03-03T18:03:34;4.13;;;1.77;;
48534;SDS011;34323;52.022;5.686;2023-03-03T18:06:17;7.70;;;2.38;;
48534;SDS011;34323;52.022;5.686;2023-03-03T18:16:58;5.07;;;2.03;;
48534;SDS011;34323;52.022;5.686;2023-03-03T18:22:46;6.68;;;2.20;;
48534;SDS011;34323;52.022;5.686;2023-03-03T18:25:16;5.65;;;1.70;;
48534;SDS011;34323;52.022;5.686;2023-03-03T18:27:45;9.63;;;2.47;;
48534;SDS011;34323;52.022;5.686;2023-03-03T18:31:18;5.38;;;2.15;;
48534;SDS011;34323;52.022;5.686;2023-03-03T18:33:39;12.55;;;2.58;;
48534;SDS011;34323;52.022;5.686;2023-03-03T18:38:52;6.43;;;2.28;;
48534;SDS011;34323;52.022;5.686;2023-03-03T18:41:21;8.93;;;2.22;;
48534;SDS011;34323;52.022;5.686;2023-03-03T18:43:51;12.70;;;2.45;;
48534;SDS011;34323;52.022;5.686;2023-03-03T18:48:55;9.55;;;2.15;;
48534;SDS011;34323;52.022;5.686;2023-03-03T18:56:44;21.85;;;2.67;;
48534;SDS011;34323;52.022;5.686;2023-03-03T19:10:50;9.50;;;2.05;;
48534;SDS011;34323;52.022;5.686;2023-03-03T19:13:31;18.33;;;2.55;;
48534;SDS011;34323;52.022;5.686;2023-03-03T19:15:57;11.38;;;2.72;;
48534;SDS011;34323;52.022;5.686;2023-03-03T19:18:25;13.75;;;2.92;;
48534;SDS011;34323;52.022;5.686;2023-03-03T19:21:37;15.25;;;2.75;;
48534;SDS011;34323;52.022;5.686;2023-03-03T19:29:23;9.07;;;1.80;;
48534;SDS011;34323;52.022;5.686;2023-03-03T19:40:21;10.57;;;2.20;;
48534;SDS011;34323;52.022;5.686;2023-03-03T19:48:21;12.52;;;2.72;;
48534;SDS011;34323;52.022;5.686;2023-03-03T19:50:52;14.67;;;3.57;;
48534;SDS011;34323;52.022;5.686;2023-03-03T20:02:13;14.05;;;3.72;;
48534;SDS011;34323;52.022;5.686;2023-03-03T20:04:56;23.50;;;4.88;;
48534;SDS011;34323;52.022;5.686;2023-03-03T20:21:11;15.38;;;3.70;;
48534;SDS011;34323;52.022;5.686;2023-03-03T20:24:04;10.05;;;2.83;;
48534;SDS011;34323;52.022;5.686;2023-03-03T20:26:38;18.67;;;3.28;;
48534;SDS011;34323;52.022;5.686;2023-03-03T20:29:36;8.32;;;2.13;;
48534;SDS011;34323;52.022;5.686;2023-03-03T20:37:33;12.32;;;2.42;;
48534;SDS011;34323;52.022;5.686;2023-03-03T20:42:52;14.10;;;1.92;;
48534;SDS011;34323;52.022;5.686;2023-03-03T20:48:00;17.45;;;2.80;;
48534;SDS011;34323;52.022;5.686;2023-03-03T21:06:42;27.63;;;4.03;;
48534;SDS011;34323;52.022;5.686;2023-03-03T21:09:15;14.02;;;3.15;;
48534;SDS011;34323;52.022;5.686;2023-03-03T21:11:47;20.95;;;3.15;;
48534;SDS011;34323;52.022;5.686;2023-03-03T21:14:18;20.23;;;3.88;;
48534;SDS011;34323;52.022;5.686;2023-03-03T21:16:47;21.17;;;2.90;;
48534;SDS011;34323;52.022;5.686;2023-03-03T21:19:24;17.05;;;3.00;;
48534;SDS011;34323;52.022;5.686;2023-03-03T21:21:55;15.45;;;2.95;;
48534;SDS011;34323;52.022;5.686;2023-03-03T21:24:22;15.98;;;3.55;;
48534;SDS011;34323;52.022;5.686;2023-03-03T21:27:22;15.13;;;4.50;;
48534;SDS011;34323;52.022;5.686;2023-03-03T21:32:36;16.20;;;3.78;;
48534;SDS011;34323;52.022;5.686;2023-03-03T21:35:18;10.38;;;3.42;;
48534;SDS011;34323;52.022;5.686;2023-03-03T21:40:27;13.00;;;3.22;;
48534;SDS011;34323;52.022;5.686;2023-03-03T21:42:54;11.75;;;2.60;;
48534;SDS011;34323;52.022;5.686;2023-03-03T21:45:22;11.18;;;3.13;;
48534;SDS011;34323;52.022;5.686;2023-03-03T21:47:48;15.80;;;3.05;;
48534;SDS011;34323;52.022;5.686;2023-03-03T21:50:16;13.52;;;2.47;;